sensor_id;sensor_type;location;lat;lon;timestamp;P1;durP1;ratioP1;P2;durP2;ratioP2
62848;SDS011;48941;49.516;8.286;2023-04-25T00:00:21;4.70;;;3.63;;
62848;SDS011;48941;49.516;8.286;2023-04-25T00:02:50;5.47;;;4.00;;
62848;SDS011;48941;49.516;8.286;2023-04-25T00:05:18;5.82;;;4.07;;
62848;SDS011;48941;49.516;8.286;2023-04-25T00:07:46;5.15;;;3.80;;
62848;SDS011;48941;49.516;8.286;2023-04-25T00:10:14;4.75;;;3.42;;
62848;SDS011;48941;49.516;8.286;2023-04-25T00:12:42;4.43;;;3.50;;
62848;SDS011;48941;49.516;8.286;2023-04-25T00:15:10;5.88;;;4.10;;
62848;SDS011;48941;49.516;8.286;2023-04-25T00:17:39;4.57;;;3.75;;
62848;SDS011;48941;49.516;8.286;2023-04-25T00:20:08;4.18;;;3.55;;
62848;SDS011;48941;49.516;8.286;2023-04-25T00:22:37;4.85;;;3.90;;
62848;SDS011;48941;49.516;8.286;2023-04-25T00:25:05;5.50;;;4.40;;
62848;SDS011;48941;49.516;8.286;2023-04-25T00:27:34;5.95;;;3.92;;
62848;SDS011;48941;49.516;8.286;2023-04-25T00:30:01;6.22;;;3.55;;
62848;SDS011;48941;49.516;8.286;2023-04-25T00:32:29;5.05;;;3.80;;
62848;SDS011;48941;49.516;8.286;2023-04-25T00:34:57;4.20;;;3.33;;
62848;SDS011;48941;49.516;8.286;2023-04-25T00:37:26;4.57;;;3.50;;
62848;SDS011;48941;49.516;8.286;2023-04-25T00:39:54;4.28;;;3.22;;
62848;SDS011;48941;49.516;8.286;2023-04-25T00:42:22;4.38;;;3.58;;
62848;SDS011;48941;49.516;8.286;2023-04-25T00:44:49;3.58;;;2.97;;
62848;SDS011;48941;49.516;8.286;2023-04-25T00:47:18;5.05;;;3.08;;
62848;SDS011;48941;49.516;8.286;2023-04-25T00:49:46;3.25;;;2.85;;
62848;SDS011;48941;49.516;8.286;2023-04-25T00:52:14;4.50;;;3.35;;
62848;SDS011;48941;49.516;8.286;2023-04-25T00:54:43;3.83;;;3.35;;
62848;SDS011;48941;49.516;8.286;2023-04-25T00:57:11;3.85;;;3.20;;
62848;SDS011;48941;49.516;8.286;2023-04-25T00:59:39;3.90;;;3.45;;
62848;SDS011;48941;49.516;8.286;2023-04-25T01:02:12;3.83;;;3.40;;
62848;SDS011;48941;49.516;8.286;2023-04-25T01:04:40;4.28;;;3.50;;
62848;SDS011;48941;49.516;8.286;2023-04-25T01:07:08;5.55;;;3.47;;
62848;SDS011;48941;49.516;8.286;2023-04-25T01:09:36;4.10;;;3.40;;
62848;SDS011;48941;49.516;8.286;2023-04-25T01:12:06;4.97;;;3.45;;
62848;SDS011;48941;49.516;8.286;2023-04-25T01:14:34;4.82;;;3.80;;
62848;SDS011;48941;49.516;8.286;2023-04-25T01:17:02;3.90;;;3.50;;
62848;SDS011;48941;49.516;8.286;2023-04-25T01:19:30;4.75;;;3.53;;
62848;SDS011;48941;49.516;8.286;2023-04-25T01:21:59;6.88;;;3.75;;
62848;SDS011;48941;49.516;8.286;2023-04-25T01:24:27;5.63;;;3.53;;
62848;SDS011;48941;49.516;8.286;2023-04-25T01:26:54;5.60;;;3.88;;
62848;SDS011;48941;49.516;8.286;2023-04-25T01:29:23;5.00;;;3.50;;
62848;SDS011;48941;49.516;8.286;2023-04-25T01:31:51;5.00;;;4.13;;
62848;SDS011;48941;49.516;8.286;2023-04-25T01:34:19;4.68;;;4.18;;
62848;SDS011;48941;49.516;8.286;2023-04-25T01:36:47;6.68;;;4.38;;
62848;SDS011;48941;49.516;8.286;2023-04-25T01:39:18;6.38;;;4.50;;
62848;SDS011;48941;49.516;8.286;2023-04-25T01:41:46;6.10;;;4.82;;
62848;SDS011;48941;49.516;8.286;2023-04-25T01:44:15;4.88;;;4.15;;
62848;SDS011;48941;49.516;8.286;2023-04-25T01:46:42;5.13;;;4.30;;
62848;SDS011;48941;49.516;8.286;2023-04-25T01:49:10;6.00;;;4.82;;
62848;SDS011;48941;49.516;8.286;2023-04-25T01:51:38;12.82;;;6.15;;
62848;SDS011;48941;49.516;8.286;2023-04-25T01:54:06;5.60;;;4.68;;
62848;SDS011;48941;49.516;8.286;2023-04-25T01:56:37;9.43;;;5.35;;
62848;SDS011;48941;49.516;8.286;2023-04-25T01:59:06;7.68;;;5.32;;
62848;SDS011;48941;49.516;8.286;2023-04-25T02:01:34;7.78;;;5.18;;
62848;SDS011;48941;49.516;8.286;2023-04-25T02:04:02;7.47;;;5.45;;
62848;SDS011;48941;49.516;8.286;2023-04-25T02:06:30;8.13;;;5.50;;
62848;SDS011;48941;49.516;8.286;2023-04-25T02:08:58;7.07;;;5.68;;
62848;SDS011;48941;49.516;8.286;2023-04-25T02:11:26;8.20;;;6.15;;
62848;SDS011;48941;49.516;8.286;2023-04-25T02:13:55;7.25;;;5.93;;
62848;SDS011;48941;49.516;8.286;2023-04-25T02:16:22;7.50;;;5.90;;
62848;SDS011;48941;49.516;8.286;2023-04-25T02:18:51;8.70;;;6.30;;
62848;SDS011;48941;49.516;8.286;2023-04-25T02:21:20;7.35;;;6.03;;
62848;SDS011;48941;49.516;8.286;2023-04-25T02:23:47;8.63;;;6.40;;
62848;SDS011;48941;49.516;8.286;2023-04-25T02:26:18;7.85;;;5.93;;
62848;SDS011;48941;49.516;8.286;2023-04-25T02:28:47;9.38;;;6.28;;
62848;SDS011;48941;49.516;8.286;2023-04-25T02:31:16;8.23;;;6.05;;
62848;SDS011;48941;49.516;8.286;2023-04-25T02:33:44;8.48;;;5.93;;
62848;SDS011;48941;49.516;8.286;2023-04-25T02:36:12;7.50;;;6.25;;
62848;SDS011;48941;49.516;8.286;2023-04-25T02:38:39;9.00;;;6.38;;
62848;SDS011;48941;49.516;8.286;2023-04-25T02:41:07;10.20;;;6.60;;
62848;SDS011;48941;49.516;8.286;2023-04-25T02:43:35;10.73;;;6.38;;
62848;SDS011;48941;49.516;8.286;2023-04-25T02:46:03;7.97;;;6.65;;
62848;SDS011;48941;49.516;8.286;2023-04-25T02:48:32;8.98;;;6.00;;
62848;SDS011;48941;49.516;8.286;2023-04-25T02:51:00;8.32;;;6.38;;
62848;SDS011;48941;49.516;8.286;2023-04-25T02:53:28;7.60;;;6.05;;
62848;SDS011;48941;49.516;8.286;2023-04-25T02:55:55;7.45;;;6.15;;
62848;SDS011;48941;49.516;8.286;2023-04-25T02:58:25;8.85;;;6.35;;
62848;SDS011;48941;49.516;8.286;2023-04-25T03:00:53;8.23;;;6.10;;
62848;SDS011;48941;49.516;8.286;2023-04-25T03:03:21;7.60;;;6.28;;
62848;SDS011;48941;49.516;8.286;2023-04-25T03:05:51;9.43;;;5.85;;
62848;SDS011;48941;49.516;8.286;2023-04-25T03:08:19;7.68;;;5.93;;
62848;SDS011;48941;49.516;8.286;2023-04-25T03:10:47;8.63;;;6.07;;
62848;SDS011;48941;49.516;8.286;2023-04-25T03:13:16;8.77;;;5.90;;
62848;SDS011;48941;49.516;8.286;2023-04-25T03:15:43;7.78;;;6.20;;
62848;SDS011;48941;49.516;8.286;2023-04-25T03:18:11;9.18;;;6.65;;
62848;SDS011;48941;49.516;8.286;2023-04-25T03:20:39;8.15;;;6.05;;
62848;SDS011;48941;49.516;8.286;2023-04-25T03:23:09;8.43;;;6.18;;
62848;SDS011;48941;49.516;8.286;2023-04-25T03:25:37;7.03;;;6.07;;
62848;SDS011;48941;49.516;8.286;2023-04-25T03:28:04;6.90;;;5.78;;
62848;SDS011;48941;49.516;8.286;2023-04-25T03:30:32;9.38;;;6.40;;
62848;SDS011;48941;49.516;8.286;2023-04-25T03:33:00;8.50;;;5.90;;
62848;SDS011;48941;49.516;8.286;2023-04-25T03:35:28;6.85;;;5.43;;
62848;SDS011;48941;49.516;8.286;2023-04-25T03:37:55;7.47;;;5.40;;
62848;SDS011;48941;49.516;8.286;2023-04-25T03:40:24;9.68;;;6.97;;
62848;SDS011;48941;49.516;8.286;2023-04-25T03:42:52;7.55;;;5.88;;
62848;SDS011;48941;49.516;8.286;2023-04-25T03:45:20;8.77;;;6.45;;
62848;SDS011;48941;49.516;8.286;2023-04-25T03:47:47;7.93;;;6.00;;
62848;SDS011;48941;49.516;8.286;2023-04-25T03:50:16;7.90;;;6.10;;
62848;SDS011;48941;49.516;8.286;2023-04-25T03:52:43;8.70;;;6.25;;
62848;SDS011;48941;49.516;8.286;2023-04-25T03:55:11;8.85;;;6.40;;
62848;SDS011;48941;49.516;8.286;2023-04-25T03:57:40;9.55;;;6.10;;
62848;SDS011;48941;49.516;8.286;2023-04-25T04:00:08;8.43;;;6.10;;
62848;SDS011;48941;49.516;8.286;2023-04-25T04:02:36;9.88;;;6.40;;
62848;SDS011;48941;49.516;8.286;2023-04-25T04:05:07;8.50;;;6.63;;
62848;SDS011;48941;49.516;8.286;2023-04-25T04:07:35;8.30;;;6.03;;
62848;SDS011;48941;49.516;8.286;2023-04-25T04:10:06;7.78;;;5.45;;
62848;SDS011;48941;49.516;8.286;2023-04-25T04:12:34;8.75;;;6.05;;
62848;SDS011;48941;49.516;8.286;2023-04-25T04:15:03;7.78;;;6.05;;
62848;SDS011;48941;49.516;8.286;2023-04-25T04:17:32;7.97;;;6.35;;
62848;SDS011;48941;49.516;8.286;2023-04-25T04:20:00;11.77;;;6.57;;
62848;SDS011;48941;49.516;8.286;2023-04-25T04:22:27;7.53;;;6.03;;
62848;SDS011;48941;49.516;8.286;2023-04-25T04:24:55;7.68;;;6.45;;
62848;SDS011;48941;49.516;8.286;2023-04-25T04:27:23;8.35;;;6.43;;
62848;SDS011;48941;49.516;8.286;2023-04-25T04:29:51;9.00;;;6.30;;
62848;SDS011;48941;49.516;8.286;2023-04-25T04:32:20;10.82;;;6.30;;
62848;SDS011;48941;49.516;8.286;2023-04-25T04:34:49;8.30;;;6.00;;
62848;SDS011;48941;49.516;8.286;2023-04-25T04:37:18;11.20;;;6.45;;
62848;SDS011;48941;49.516;8.286;2023-04-25T04:39:46;9.40;;;6.72;;
62848;SDS011;48941;49.516;8.286;2023-04-25T04:42:13;7.53;;;5.93;;
62848;SDS011;48941;49.516;8.286;2023-04-25T04:44:41;8.77;;;6.38;;
62848;SDS011;48941;49.516;8.286;2023-04-25T04:47:10;10.23;;;6.00;;
62848;SDS011;48941;49.516;8.286;2023-04-25T04:49:41;10.65;;;6.40;;
62848;SDS011;48941;49.516;8.286;2023-04-25T04:52:09;8.20;;;6.18;;
62848;SDS011;48941;49.516;8.286;2023-04-25T04:54:36;8.75;;;6.20;;
62848;SDS011;48941;49.516;8.286;2023-04-25T04:57:04;7.80;;;5.90;;
62848;SDS011;48941;49.516;8.286;2023-04-25T04:59:32;7.85;;;6.00;;
62848;SDS011;48941;49.516;8.286;2023-04-25T05:02:00;9.93;;;6.35;;
62848;SDS011;48941;49.516;8.286;2023-04-25T05:04:27;10.50;;;6.65;;
62848;SDS011;48941;49.516;8.286;2023-04-25T05:06:56;9.25;;;6.43;;
62848;SDS011;48941;49.516;8.286;2023-04-25T05:09:24;9.25;;;6.43;;
62848;SDS011;48941;49.516;8.286;2023-04-25T05:11:52;8.73;;;5.70;;
62848;SDS011;48941;49.516;8.286;2023-04-25T05:14:20;8.27;;;6.07;;
62848;SDS011;48941;49.516;8.286;2023-04-25T05:16:48;9.27;;;6.22;;
62848;SDS011;48941;49.516;8.286;2023-04-25T05:19:16;9.13;;;6.03;;
62848;SDS011;48941;49.516;8.286;2023-04-25T05:21:44;9.05;;;6.40;;
62848;SDS011;48941;49.516;8.286;2023-04-25T05:24:13;8.48;;;6.80;;
62848;SDS011;48941;49.516;8.286;2023-04-25T05:26:41;10.63;;;6.57;;
62848;SDS011;48941;49.516;8.286;2023-04-25T05:29:09;8.50;;;6.38;;
62848;SDS011;48941;49.516;8.286;2023-04-25T05:31:36;10.32;;;7.05;;
62848;SDS011;48941;49.516;8.286;2023-04-25T05:34:04;10.40;;;7.25;;
62848;SDS011;48941;49.516;8.286;2023-04-25T05:36:32;9.52;;;7.35;;
62848;SDS011;48941;49.516;8.286;2023-04-25T05:38:59;9.45;;;7.13;;
62848;SDS011;48941;49.516;8.286;2023-04-25T05:41:29;11.48;;;7.63;;
62848;SDS011;48941;49.516;8.286;2023-04-25T05:43:57;8.75;;;6.90;;
62848;SDS011;48941;49.516;8.286;2023-04-25T05:46:25;8.90;;;6.75;;
62848;SDS011;48941;49.516;8.286;2023-04-25T05:48:53;9.85;;;7.18;;
62848;SDS011;48941;49.516;8.286;2023-04-25T05:51:21;10.60;;;7.32;;
62848;SDS011;48941;49.516;8.286;2023-04-25T05:53:49;10.38;;;7.25;;
62848;SDS011;48941;49.516;8.286;2023-04-25T05:56:17;10.07;;;7.35;;
62848;SDS011;48941;49.516;8.286;2023-04-25T05:58:46;12.80;;;7.35;;
62848;SDS011;48941;49.516;8.286;2023-04-25T06:01:14;10.27;;;7.35;;
62848;SDS011;48941;49.516;8.286;2023-04-25T06:03:42;10.43;;;6.80;;
62848;SDS011;48941;49.516;8.286;2023-04-25T06:06:10;11.10;;;7.93;;
62848;SDS011;48941;49.516;8.286;2023-04-25T06:08:39;9.90;;;7.57;;
62848;SDS011;48941;49.516;8.286;2023-04-25T06:11:07;8.27;;;6.47;;
62848;SDS011;48941;49.516;8.286;2023-04-25T06:13:35;10.63;;;7.63;;
62848;SDS011;48941;49.516;8.286;2023-04-25T06:16:06;10.73;;;6.90;;
62848;SDS011;48941;49.516;8.286;2023-04-25T06:18:34;8.68;;;6.68;;
62848;SDS011;48941;49.516;8.286;2023-04-25T06:21:02;8.88;;;6.63;;
62848;SDS011;48941;49.516;8.286;2023-04-25T06:23:30;10.20;;;6.68;;
62848;SDS011;48941;49.516;8.286;2023-04-25T06:25:58;10.40;;;6.53;;
62848;SDS011;48941;49.516;8.286;2023-04-25T06:28:25;10.50;;;5.93;;
62848;SDS011;48941;49.516;8.286;2023-04-25T06:30:54;9.43;;;5.50;;
62848;SDS011;48941;49.516;8.286;2023-04-25T06:33:23;13.38;;;6.25;;
62848;SDS011;48941;49.516;8.286;2023-04-25T06:35:51;10.75;;;6.28;;
62848;SDS011;48941;49.516;8.286;2023-04-25T06:38:18;11.30;;;6.72;;
62848;SDS011;48941;49.516;8.286;2023-04-25T06:40:46;10.52;;;6.53;;
62848;SDS011;48941;49.516;8.286;2023-04-25T06:43:14;12.40;;;6.90;;
62848;SDS011;48941;49.516;8.286;2023-04-25T06:45:42;13.55;;;6.93;;
62848;SDS011;48941;49.516;8.286;2023-04-25T06:48:13;12.90;;;7.60;;
62848;SDS011;48941;49.516;8.286;2023-04-25T06:50:43;13.30;;;7.55;;
62848;SDS011;48941;49.516;8.286;2023-04-25T06:53:11;13.95;;;7.65;;
62848;SDS011;48941;49.516;8.286;2023-04-25T06:55:38;11.82;;;7.70;;
62848;SDS011;48941;49.516;8.286;2023-04-25T06:58:06;11.52;;;8.05;;
62848;SDS011;48941;49.516;8.286;2023-04-25T07:00:34;12.07;;;7.75;;
62848;SDS011;48941;49.516;8.286;2023-04-25T07:03:02;15.07;;;8.27;;
62848;SDS011;48941;49.516;8.286;2023-04-25T07:05:30;14.18;;;8.25;;
62848;SDS011;48941;49.516;8.286;2023-04-25T07:07:59;14.68;;;7.53;;
62848;SDS011;48941;49.516;8.286;2023-04-25T07:10:28;13.40;;;7.88;;
62848;SDS011;48941;49.516;8.286;2023-04-25T07:12:55;14.07;;;7.40;;
62848;SDS011;48941;49.516;8.286;2023-04-25T07:15:23;17.65;;;6.53;;
62848;SDS011;48941;49.516;8.286;2023-04-25T07:17:51;9.82;;;6.00;;
62848;SDS011;48941;49.516;8.286;2023-04-25T07:20:18;16.42;;;6.82;;
62848;SDS011;48941;49.516;8.286;2023-04-25T07:22:46;12.95;;;5.82;;
62848;SDS011;48941;49.516;8.286;2023-04-25T07:25:16;13.30;;;5.95;;
62848;SDS011;48941;49.516;8.286;2023-04-25T07:27:44;13.95;;;5.57;;
62848;SDS011;48941;49.516;8.286;2023-04-25T07:30:11;9.18;;;4.63;;
62848;SDS011;48941;49.516;8.286;2023-04-25T07:32:40;12.30;;;5.15;;
62848;SDS011;48941;49.516;8.286;2023-04-25T07:35:08;15.48;;;5.75;;
62848;SDS011;48941;49.516;8.286;2023-04-25T07:37:36;19.90;;;5.90;;
62848;SDS011;48941;49.516;8.286;2023-04-25T07:40:04;14.50;;;5.43;;
62848;SDS011;48941;49.516;8.286;2023-04-25T07:42:35;13.10;;;5.28;;
62848;SDS011;48941;49.516;8.286;2023-04-25T07:45:03;14.25;;;5.10;;
62848;SDS011;48941;49.516;8.286;2023-04-25T07:47:31;16.33;;;5.70;;
62848;SDS011;48941;49.516;8.286;2023-04-25T07:49:59;13.65;;;6.32;;
62848;SDS011;48941;49.516;8.286;2023-04-25T07:52:27;13.18;;;5.90;;
62848;SDS011;48941;49.516;8.286;2023-04-25T07:54:54;10.63;;;5.63;;
62848;SDS011;48941;49.516;8.286;2023-04-25T07:57:22;13.77;;;5.72;;
62848;SDS011;48941;49.516;8.286;2023-04-25T07:59:53;15.50;;;5.90;;
62848;SDS011;48941;49.516;8.286;2023-04-25T08:02:21;12.70;;;5.53;;
62848;SDS011;48941;49.516;8.286;2023-04-25T08:04:49;11.20;;;5.65;;
62848;SDS011;48941;49.516;8.286;2023-04-25T08:07:17;17.27;;;6.05;;
62848;SDS011;48941;49.516;8.286;2023-04-25T08:09:45;12.57;;;5.80;;
62848;SDS011;48941;49.516;8.286;2023-04-25T08:12:13;13.05;;;6.03;;
62848;SDS011;48941;49.516;8.286;2023-04-25T08:14:41;14.15;;;5.45;;
62848;SDS011;48941;49.516;8.286;2023-04-25T08:17:10;12.45;;;6.13;;
62848;SDS011;48941;49.516;8.286;2023-04-25T08:19:38;10.77;;;4.60;;
62848;SDS011;48941;49.516;8.286;2023-04-25T08:22:06;9.52;;;4.03;;
62848;SDS011;48941;49.516;8.286;2023-04-25T08:24:34;9.02;;;4.07;;
62848;SDS011;48941;49.516;8.286;2023-04-25T08:27:04;13.93;;;3.97;;
62848;SDS011;48941;49.516;8.286;2023-04-25T08:29:32;6.57;;;3.67;;
62848;SDS011;48941;49.516;8.286;2023-04-25T08:32:01;9.70;;;4.38;;
62848;SDS011;48941;49.516;8.286;2023-04-25T08:34:30;10.23;;;4.32;;
62848;SDS011;48941;49.516;8.286;2023-04-25T08:36:57;11.55;;;4.82;;
62848;SDS011;48941;49.516;8.286;2023-04-25T08:39:25;11.45;;;4.68;;
62848;SDS011;48941;49.516;8.286;2023-04-25T08:41:53;11.52;;;4.40;;
62848;SDS011;48941;49.516;8.286;2023-04-25T08:44:21;10.18;;;4.53;;
62848;SDS011;48941;49.516;8.286;2023-04-25T08:46:49;17.40;;;4.97;;
62848;SDS011;48941;49.516;8.286;2023-04-25T08:49:19;15.40;;;4.85;;
62848;SDS011;48941;49.516;8.286;2023-04-25T08:51:48;11.15;;;4.53;;
62848;SDS011;48941;49.516;8.286;2023-04-25T08:54:17;11.07;;;4.60;;
62848;SDS011;48941;49.516;8.286;2023-04-25T08:57:02;10.35;;;4.43;;
62848;SDS011;48941;49.516;8.286;2023-04-25T08:59:31;9.07;;;4.15;;
62848;SDS011;48941;49.516;8.286;2023-04-25T09:02:03;5.63;;;3.60;;
62848;SDS011;48941;49.516;8.286;2023-04-25T09:04:31;12.95;;;3.58;;
62848;SDS011;48941;49.516;8.286;2023-04-25T09:07:00;7.95;;;3.80;;
62848;SDS011;48941;49.516;8.286;2023-04-25T09:09:29;10.80;;;4.07;;
62848;SDS011;48941;49.516;8.286;2023-04-25T09:11:57;9.75;;;4.05;;
62848;SDS011;48941;49.516;8.286;2023-04-25T09:14:25;11.73;;;4.43;;
62848;SDS011;48941;49.516;8.286;2023-04-25T09:16:58;9.02;;;4.57;;
62848;SDS011;48941;49.516;8.286;2023-04-25T09:19:27;10.15;;;4.30;;
62848;SDS011;48941;49.516;8.286;2023-04-25T09:22:01;10.98;;;3.83;;
62848;SDS011;48941;49.516;8.286;2023-04-25T09:24:33;9.23;;;3.70;;
62848;SDS011;48941;49.516;8.286;2023-04-25T09:27:05;9.57;;;4.13;;
62848;SDS011;48941;49.516;8.286;2023-04-25T09:29:34;9.43;;;4.73;;
62848;SDS011;48941;49.516;8.286;2023-04-25T09:32:10;9.55;;;4.18;;
62848;SDS011;48941;49.516;8.286;2023-04-25T09:34:40;10.68;;;4.25;;
62848;SDS011;48941;49.516;8.286;2023-04-25T09:37:10;9.82;;;4.35;;
62848;SDS011;48941;49.516;8.286;2023-04-25T09:39:38;11.20;;;4.28;;
62848;SDS011;48941;49.516;8.286;2023-04-25T09:42:07;9.05;;;4.25;;
62848;SDS011;48941;49.516;8.286;2023-04-25T09:44:36;9.27;;;4.30;;
62848;SDS011;48941;49.516;8.286;2023-04-25T09:47:09;10.77;;;4.28;;
62848;SDS011;48941;49.516;8.286;2023-04-25T09:49:38;9.07;;;4.10;;
62848;SDS011;48941;49.516;8.286;2023-04-25T09:52:08;8.98;;;4.18;;
62848;SDS011;48941;49.516;8.286;2023-04-25T09:54:38;7.82;;;4.43;;
62848;SDS011;48941;49.516;8.286;2023-04-25T09:57:08;11.10;;;4.68;;
62848;SDS011;48941;49.516;8.286;2023-04-25T09:59:39;12.90;;;4.50;;
62848;SDS011;48941;49.516;8.286;2023-04-25T10:02:11;7.60;;;4.22;;
62848;SDS011;48941;49.516;8.286;2023-04-25T10:04:40;7.32;;;3.92;;
62848;SDS011;48941;49.516;8.286;2023-04-25T10:07:09;8.15;;;3.95;;
62848;SDS011;48941;49.516;8.286;2023-04-25T10:09:39;7.57;;;3.72;;
62848;SDS011;48941;49.516;8.286;2023-04-25T10:12:08;6.95;;;3.67;;
62848;SDS011;48941;49.516;8.286;2023-04-25T10:14:35;8.60;;;3.85;;
62848;SDS011;48941;49.516;8.286;2023-04-25T10:17:03;6.85;;;3.92;;
62848;SDS011;48941;49.516;8.286;2023-04-25T10:19:31;7.88;;;4.00;;
62848;SDS011;48941;49.516;8.286;2023-04-25T10:22:04;13.23;;;4.22;;
62848;SDS011;48941;49.516;8.286;2023-04-25T10:24:35;6.28;;;3.83;;
62848;SDS011;48941;49.516;8.286;2023-04-25T10:27:04;6.53;;;3.90;;
62848;SDS011;48941;49.516;8.286;2023-04-25T10:29:33;6.70;;;3.85;;
62848;SDS011;48941;49.516;8.286;2023-04-25T10:32:02;7.50;;;4.68;;
62848;SDS011;48941;49.516;8.286;2023-04-25T10:34:37;10.88;;;4.57;;
62848;SDS011;48941;49.516;8.286;2023-04-25T10:37:08;8.82;;;4.40;;
62848;SDS011;48941;49.516;8.286;2023-04-25T10:39:38;7.35;;;4.10;;
62848;SDS011;48941;49.516;8.286;2023-04-25T10:42:09;8.88;;;4.43;;
62848;SDS011;48941;49.516;8.286;2023-04-25T10:44:37;8.30;;;3.92;;
62848;SDS011;48941;49.516;8.286;2023-04-25T10:47:06;10.23;;;4.22;;
62848;SDS011;48941;49.516;8.286;2023-04-25T10:49:36;11.93;;;4.43;;
62848;SDS011;48941;49.516;8.286;2023-04-25T10:52:15;6.47;;;3.67;;
62848;SDS011;48941;49.516;8.286;2023-04-25T10:54:48;7.10;;;3.78;;
62848;SDS011;48941;49.516;8.286;2023-04-25T10:57:30;6.30;;;3.78;;
62848;SDS011;48941;49.516;8.286;2023-04-25T11:00:00;10.43;;;3.95;;
62848;SDS011;48941;49.516;8.286;2023-04-25T11:02:31;7.73;;;3.80;;
62848;SDS011;48941;49.516;8.286;2023-04-25T11:04:59;7.68;;;3.47;;
62848;SDS011;48941;49.516;8.286;2023-04-25T11:07:30;7.05;;;3.53;;
62848;SDS011;48941;49.516;8.286;2023-04-25T11:10:02;4.68;;;3.55;;
62848;SDS011;48941;49.516;8.286;2023-04-25T11:12:32;9.35;;;3.85;;
62848;SDS011;48941;49.516;8.286;2023-04-25T11:15:01;8.10;;;3.85;;
62848;SDS011;48941;49.516;8.286;2023-04-25T11:17:30;8.43;;;3.67;;
62848;SDS011;48941;49.516;8.286;2023-04-25T11:19:59;8.05;;;3.70;;
62848;SDS011;48941;49.516;8.286;2023-04-25T11:22:27;4.80;;;3.38;;
62848;SDS011;48941;49.516;8.286;2023-04-25T11:24:56;6.65;;;3.20;;
62848;SDS011;48941;49.516;8.286;2023-04-25T11:27:23;5.95;;;3.75;;
62848;SDS011;48941;49.516;8.286;2023-04-25T11:29:53;7.60;;;3.60;;
62848;SDS011;48941;49.516;8.286;2023-04-25T11:32:21;5.60;;;3.45;;
62848;SDS011;48941;49.516;8.286;2023-04-25T11:34:50;6.60;;;3.70;;
62848;SDS011;48941;49.516;8.286;2023-04-25T11:37:19;5.47;;;4.07;;
62848;SDS011;48941;49.516;8.286;2023-04-25T11:39:47;8.95;;;3.92;;
62848;SDS011;48941;49.516;8.286;2023-04-25T11:42:15;5.88;;;3.72;;
62848;SDS011;48941;49.516;8.286;2023-04-25T11:44:43;6.13;;;3.65;;
62848;SDS011;48941;49.516;8.286;2023-04-25T11:47:12;5.45;;;3.90;;
62848;SDS011;48941;49.516;8.286;2023-04-25T11:49:40;6.18;;;3.40;;
62848;SDS011;48941;49.516;8.286;2023-04-25T11:52:08;10.52;;;3.92;;
62848;SDS011;48941;49.516;8.286;2023-04-25T11:54:36;5.63;;;3.63;;
62848;SDS011;48941;49.516;8.286;2023-04-25T11:57:04;7.43;;;4.20;;
62848;SDS011;48941;49.516;8.286;2023-04-25T11:59:31;7.03;;;4.10;;
62848;SDS011;48941;49.516;8.286;2023-04-25T12:01:59;6.43;;;3.90;;
62848;SDS011;48941;49.516;8.286;2023-04-25T12:04:30;7.32;;;4.07;;
62848;SDS011;48941;49.516;8.286;2023-04-25T12:06:58;6.32;;;4.07;;
62848;SDS011;48941;49.516;8.286;2023-04-25T12:09:28;6.65;;;3.50;;
62848;SDS011;48941;49.516;8.286;2023-04-25T12:11:58;6.53;;;3.75;;
62848;SDS011;48941;49.516;8.286;2023-04-25T12:14:29;6.90;;;3.75;;
62848;SDS011;48941;49.516;8.286;2023-04-25T12:16:58;5.93;;;3.13;;
62848;SDS011;48941;49.516;8.286;2023-04-25T12:19:33;6.22;;;3.35;;
62848;SDS011;48941;49.516;8.286;2023-04-25T12:22:02;6.03;;;3.70;;
62848;SDS011;48941;49.516;8.286;2023-04-25T12:24:32;12.25;;;5.13;;
62848;SDS011;48941;49.516;8.286;2023-04-25T12:27:05;9.70;;;4.38;;
62848;SDS011;48941;49.516;8.286;2023-04-25T12:29:34;7.90;;;3.83;;
62848;SDS011;48941;49.516;8.286;2023-04-25T12:32:15;8.80;;;3.70;;
62848;SDS011;48941;49.516;8.286;2023-04-25T12:34:44;6.78;;;3.10;;
62848;SDS011;48941;49.516;8.286;2023-04-25T12:37:12;7.70;;;3.35;;
62848;SDS011;48941;49.516;8.286;2023-04-25T12:39:41;7.55;;;4.05;;
62848;SDS011;48941;49.516;8.286;2023-04-25T12:42:09;6.75;;;3.47;;
62848;SDS011;48941;49.516;8.286;2023-04-25T12:44:38;10.13;;;3.97;;
62848;SDS011;48941;49.516;8.286;2023-04-25T12:47:06;12.32;;;3.92;;
62848;SDS011;48941;49.516;8.286;2023-04-25T12:49:34;7.50;;;4.03;;
62848;SDS011;48941;49.516;8.286;2023-04-25T12:52:05;6.10;;;4.15;;
62848;SDS011;48941;49.516;8.286;2023-04-25T12:54:32;10.45;;;4.53;;
62848;SDS011;48941;49.516;8.286;2023-04-25T12:57:01;9.07;;;4.28;;
62848;SDS011;48941;49.516;8.286;2023-04-25T12:59:29;8.07;;;4.25;;
62848;SDS011;48941;49.516;8.286;2023-04-25T13:01:57;13.35;;;4.78;;
62848;SDS011;48941;49.516;8.286;2023-04-25T13:04:25;8.55;;;3.85;;
62848;SDS011;48941;49.516;8.286;2023-04-25T13:06:54;12.70;;;4.65;;
62848;SDS011;48941;49.516;8.286;2023-04-25T13:09:23;11.50;;;4.25;;
62848;SDS011;48941;49.516;8.286;2023-04-25T13:11:51;10.27;;;4.40;;
62848;SDS011;48941;49.516;8.286;2023-04-25T13:14:23;10.85;;;4.20;;
62848;SDS011;48941;49.516;8.286;2023-04-25T13:16:51;10.07;;;4.10;;
62848;SDS011;48941;49.516;8.286;2023-04-25T13:19:19;12.80;;;4.32;;
62848;SDS011;48941;49.516;8.286;2023-04-25T13:21:47;11.10;;;4.50;;
62848;SDS011;48941;49.516;8.286;2023-04-25T13:24:15;18.25;;;4.40;;
62848;SDS011;48941;49.516;8.286;2023-04-25T13:26:44;8.43;;;4.18;;
62848;SDS011;48941;49.516;8.286;2023-04-25T13:29:12;11.50;;;4.10;;
62848;SDS011;48941;49.516;8.286;2023-04-25T13:31:40;10.32;;;3.75;;
62848;SDS011;48941;49.516;8.286;2023-04-25T13:34:08;13.57;;;3.80;;
62848;SDS011;48941;49.516;8.286;2023-04-25T13:36:36;6.53;;;4.18;;
62848;SDS011;48941;49.516;8.286;2023-04-25T13:39:04;8.60;;;3.65;;
62848;SDS011;48941;49.516;8.286;2023-04-25T13:41:32;9.75;;;4.00;;
62848;SDS011;48941;49.516;8.286;2023-04-25T13:44:01;9.13;;;4.22;;
62848;SDS011;48941;49.516;8.286;2023-04-25T13:46:29;10.85;;;4.47;;
62848;SDS011;48941;49.516;8.286;2023-04-25T13:49:11;10.95;;;4.05;;
62848;SDS011;48941;49.516;8.286;2023-04-25T13:51:39;8.80;;;4.00;;
62848;SDS011;48941;49.516;8.286;2023-04-25T13:54:08;11.52;;;3.92;;
62848;SDS011;48941;49.516;8.286;2023-04-25T13:56:36;8.10;;;3.50;;
62848;SDS011;48941;49.516;8.286;2023-04-25T13:59:06;8.80;;;3.72;;
62848;SDS011;48941;49.516;8.286;2023-04-25T14:01:33;11.82;;;3.80;;
62848;SDS011;48941;49.516;8.286;2023-04-25T14:04:02;9.63;;;3.85;;
62848;SDS011;48941;49.516;8.286;2023-04-25T14:06:31;13.48;;;3.88;;
62848;SDS011;48941;49.516;8.286;2023-04-25T14:08:59;9.77;;;3.88;;
62848;SDS011;48941;49.516;8.286;2023-04-25T14:11:27;11.90;;;3.60;;
62848;SDS011;48941;49.516;8.286;2023-04-25T14:13:55;9.70;;;3.42;;
62848;SDS011;48941;49.516;8.286;2023-04-25T14:16:25;10.05;;;3.35;;
62848;SDS011;48941;49.516;8.286;2023-04-25T14:18:52;6.70;;;3.50;;
62848;SDS011;48941;49.516;8.286;2023-04-25T14:21:20;8.63;;;3.70;;
62848;SDS011;48941;49.516;8.286;2023-04-25T14:23:48;5.47;;;3.13;;
62848;SDS011;48941;49.516;8.286;2023-04-25T14:26:17;7.57;;;3.63;;
62848;SDS011;48941;49.516;8.286;2023-04-25T14:28:44;7.40;;;4.03;;
62848;SDS011;48941;49.516;8.286;2023-04-25T14:31:12;13.00;;;4.15;;
62848;SDS011;48941;49.516;8.286;2023-04-25T14:33:41;12.45;;;5.88;;
62848;SDS011;48941;49.516;8.286;2023-04-25T14:36:09;6.78;;;3.65;;
62848;SDS011;48941;49.516;8.286;2023-04-25T14:38:37;11.15;;;4.15;;
62848;SDS011;48941;49.516;8.286;2023-04-25T14:41:05;8.98;;;3.70;;
62848;SDS011;48941;49.516;8.286;2023-04-25T14:43:32;10.77;;;3.97;;
62848;SDS011;48941;49.516;8.286;2023-04-25T14:46:00;6.30;;;3.88;;
62848;SDS011;48941;49.516;8.286;2023-04-25T14:48:28;7.60;;;3.90;;
62848;SDS011;48941;49.516;8.286;2023-04-25T14:50:57;11.75;;;3.85;;